메인 페이지
METAR-TAF:

METAR-TAF

공항 :

Cranwell, 잉글랜드

위도: 53-02N, 경도: 000-30W, 고도: 67m

현재 날씨관측

예보는 26분 전, 03:20시(UTC)에 발표되었습니다.
서북서8kt
온도 11°C
습도 87%
기압 1014 hPa
시정 10km 이상
약한비,

METAR: EGYD 130320Z AUTO 29008KT 9999 -RA BKN030/// SCT071/// 11/09 Q1014

시각: 04:46 (03:46 UTC)

예보

예보는 13 시간 56분 전, 13:50시(UTC)에 발표되었습니다.
예보 대상 시간: 12일 15시부터 12일 18시까지 (UTC)
북북서10kt
시정 10km 이상
고도 3000ft 상공 구름 보통
일시적
12일 16시부터 12일 18시까지 (UTC)
시정: 7000m
고도 1000ft 상공 구름 많음
비,

TAF: EGYD 121350Z 1215/1218 34010KT 9999 SCT030 TEMPO 1216/1218 7000 RA BKN010

4,000개 이상의 공항 관측 자료 및 예보 (METAR 및 TAF 보고).

지도상에서 검색 가능한 기상관측소가 노란 점과 빨간 점으로 표시되어 있습니다.

기상관측소 명을 보려면 표시 위로 마우스를 이동하세요.

날씨 관측과 예보를 보려면 클릭하세요.

지도 변경 : 확대하려면 엑스 표시가 있는 녹색 버튼, 축소하려면 빼기 표시가 있는 녹색 버튼, 다음 페이지의 지도를 보려면 녹색 화살표를 클릭하세요.


METAR-TAF: